Embarrass, WI

12:13 AM CDT on July 29, 2014 (GMT -0500)
Clintonville Municipal (KCLI) Elev 823 ft | 44.62 °N, 88.73 °W | Change Station

Current weather conditions updated 18 minutes ago

Scattered Clouds
Scattered Clouds
63 °F
Feels Like 63 °F
N
5
Wind Variable Wind from WNW

Today is forecast to be Warmer than yesterday.

Today
High -- | Low -- °F
--% Chance of Precip.
Yesterday
High -- | Low -- °F
Precip. -- in
5:37 AM 8:24 PM
Waxing Crescent, 5% visible
Pressure 30.03 in
Visibility 10.0 miles
Clouds Scattered Clouds 5500 ft
Scattered Clouds 8000 ft
Dew Point 54 °F
Humidity 72%
Rainfall 0.00 in
Snow Depth Not available.
UV 0 out of 12
Pollen 7.90 out of 12
Air Quality Not available.
Flu Activity Not available.
METAR KCLI 290455Z AUTO 29004KT 10SM SCT055 SCT080 17/12 A3003 RMK AO2

More Conditions Fewer Conditions

Pressure 30.03 in
Visibility 10.0 miles
Clouds Scattered Clouds 5500 ft
Scattered Clouds 8000 ft
Dew Point 54 °F
Humidity 72%
Rainfall 0.00 in
Snow Depth Not available.
UV 0 out of 12
Pollen 7.90 out of 12
Air Quality Not available.
Flu Activity Not available.
METAR KCLI 290455Z AUTO 29004KT 10SM SCT055 SCT080 17/12 A3003 RMK AO2

More Conditions Fewer Conditions

10-Day Weather Forecast

Almanac

Astronomy

Jul. 29, 2014 Rise Set
Actual Time 5:37 AM CDT 8:24 PM CDT
Civil Twilight 5:03 AM CDT 8:57 PM CDT
Nautical Twilight 4:21 AM CDT 9:40 PM CDT
Astronomical Twilight 3:31 AM CDT 10:29 PM CDT
Moon 8:22 AM CDT 9:26 PM CDT
Length of Visible Light 15h 53m
Length of Day
14h 46m
Tomorrow will be 2m 18s shorter.
Waxing Crescent, 5% of the Moon is Illuminated
Today
Waxing Crescent
Aug 3
First Quarter
Aug 10
Full
Aug 17
Last Quarter
Aug 25
New

Today's Extremes

State Highs State Lows

Community

WunderPhotos

Upload Photos

1,738,642 photos uploaded!

Nearby

Snow Depth

Station Depth Elevation
No new snow has been reported.

Earthquake Activity

City Distance Mag. Time & Date
No recent earthquake activity has been reported nearby.
Minimum magnitude displayed is 2.5.

Coastal Water Temperatures

Place Temperature
No Stations Reporting

Nearby Weather Stations

Station Location Temp. Dew Point Humidity Wind Precip. Elev Updated Type
Bonduel, WI 63.7 °F 56 °F 76% WNW  at  2.2 mph 0.00 in / hr 902 ft 12:12 AM CDT Rapid Fire
Mosquito Hill, New London, WI 62.0 °F 55 °F 79% North  at  0.0 mph 0.00 in / hr 794 ft 12:13 AM CDT Rapid Fire
KC9AA, New London, WI 63.7 °F 55 °F 74% West  at  0.0 mph 0.00 in / hr 817 ft 12:11 AM CDT Rapid Fire
Linsmeyer Road, Seymour, WI 62.6 °F 34 °F 34% North  at  0.0 mph 0.00 in / hr 784 ft 12:13 AM CDT Normal
WB9GBG, Iola, WI 64.6 °F 56 °F 75% West  at  1.6 mph 0.00 in / hr 1027 ft 1:13 AM EDT Normal

Show More Stations Show Fewer Stations